createdAt,value
2023-05-10T00:00:32.626Z,12.57
2023-05-10T00:02:59.270Z,12.60
2023-05-10T00:05:25.920Z,12.58
2023-05-10T00:07:52.480Z,12.54
2023-05-10T00:10:19.169Z,12.51
2023-05-10T00:12:45.885Z,12.41
2023-05-10T00:15:12.486Z,12.36
2023-05-10T00:17:39.065Z,12.41
2023-05-10T00:20:06.321Z,12.33
2023-05-10T00:22:33.169Z,12.36
2023-05-10T00:25:00.370Z,12.25
2023-05-10T00:27:26.955Z,12.17
2023-05-10T00:29:53.488Z,12.14
2023-05-10T00:32:20.095Z,12.15
2023-05-10T00:34:46.664Z,12.07
2023-05-10T00:37:13.177Z,12.14
2023-05-10T00:39:39.669Z,12.03
2023-05-10T00:42:06.218Z,12.01
2023-05-10T00:44:32.781Z,12.00
2023-05-10T00:47:00.321Z,11.86
2023-05-10T00:49:27.100Z,11.89
2023-05-10T00:51:53.927Z,11.71
2023-05-10T00:54:20.598Z,11.87
2023-05-10T00:56:49.877Z,11.94
2023-05-10T00:59:18.099Z,11.91
2023-05-10T01:01:45.996Z,11.84
2023-05-10T01:04:16.205Z,11.80
2023-05-10T01:06:43.458Z,11.86
2023-05-10T01:09:10.980Z,11.70
2023-05-10T01:11:39.565Z,11.66
2023-05-10T01:14:07.051Z,11.71
2023-05-10T01:16:38.153Z,11.67
2023-05-10T01:19:19.627Z,11.60
2023-05-10T01:21:55.443Z,11.53
2023-05-10T01:24:43.409Z,11.45
2023-05-10T01:27:53.910Z,11.47
2023-05-10T01:30:45.235Z,11.41
2023-05-10T01:33:40.943Z,11.44
2023-05-10T01:36:26.985Z,11.39
2023-05-10T01:39:04.554Z,11.28
2023-05-10T01:41:39.240Z,11.32
2023-05-10T01:44:17.650Z,11.21
2023-05-10T01:46:44.265Z,11.13
2023-05-10T01:49:20.826Z,11.03
2023-05-10T01:51:52.413Z,11.00
2023-05-10T01:54:21.283Z,10.93
2023-05-10T01:56:53.636Z,10.89
2023-05-10T01:59:20.974Z,10.91
2023-05-10T02:01:49.839Z,10.87
2023-05-10T02:04:18.132Z,10.91
2023-05-10T02:06:48.915Z,10.94
2023-05-10T02:09:16.760Z,10.84
2023-05-10T02:11:45.198Z,11.01
2023-05-10T02:14:12.532Z,10.88
2023-05-10T02:16:40.758Z,10.81
2023-05-10T02:19:09.511Z,10.72
2023-05-10T02:21:36.902Z,10.78
2023-05-10T02:24:05.231Z,10.77
2023-05-10T02:26:34.008Z,10.72
2023-05-10T02:29:04.384Z,10.77
2023-05-10T02:31:34.183Z,10.69
2023-05-10T02:34:02.500Z,10.81
2023-05-10T02:36:30.359Z,10.76
2023-05-10T02:38:58.486Z,10.72
2023-05-10T02:41:27.346Z,10.75
2023-05-10T02:43:58.251Z,10.66
2023-05-10T02:46:24.994Z,10.53
2023-05-10T02:48:51.595Z,10.59
2023-05-10T02:51:20.709Z,10.56
2023-05-10T02:53:50.175Z,10.47
2023-05-10T02:56:29.811Z,10.28
2023-05-10T02:58:56.538Z,10.45
2023-05-10T03:01:23.347Z,10.37
2023-05-10T03:03:49.904Z,10.37
2023-05-10T03:06:17.373Z,10.26
2023-05-10T03:08:45.370Z,10.19
2023-05-10T03:11:40.113Z,10.11
2023-05-10T03:14:18.902Z,9.97
2023-05-10T03:16:57.802Z,10.01
2023-05-10T03:19:31.213Z,10.15
2023-05-10T03:22:03.157Z,10.07
2023-05-10T03:24:31.010Z,9.95
2023-05-10T03:27:03.834Z,10.13
2023-05-10T03:29:31.776Z,10.12
2023-05-10T03:32:01.432Z,10.15
2023-05-10T03:34:30.814Z,10.09
2023-05-10T03:36:57.403Z,10.18
2023-05-10T03:39:23.978Z,10.19
2023-05-10T03:41:50.524Z,10.11
2023-05-10T03:44:17.403Z,10.20
2023-05-10T03:46:44.109Z,10.24
2023-05-10T03:49:10.685Z,10.19
2023-05-10T03:51:37.352Z,10.18
2023-05-10T03:54:04.035Z,10.13
2023-05-10T03:56:31.059Z,10.15
2023-05-10T03:58:57.577Z,10.16
2023-05-10T04:01:24.124Z,10.16
2023-05-10T04:03:50.801Z,10.28
2023-05-10T04:06:17.463Z,10.26
2023-05-10T04:08:44.076Z,10.18
2023-05-10T04:11:12.502Z,10.24
2023-05-10T04:13:39.511Z,10.09
2023-05-10T04:16:06.367Z,10.03
2023-05-10T04:18:32.998Z,10.18
2023-05-10T04:20:59.613Z,10.25
2023-05-10T04:23:26.173Z,10.34
2023-05-10T04:25:52.686Z,10.27
2023-05-10T04:28:19.337Z,10.29
2023-05-10T04:30:46.677Z,10.16
2023-05-10T04:33:13.211Z,10.52
2023-05-10T04:35:41.038Z,10.42
2023-05-10T04:38:07.850Z,10.60
2023-05-10T04:40:35.204Z,10.65
2023-05-10T04:43:01.729Z,10.58
2023-05-10T04:45:28.270Z,10.78
2023-05-10T04:47:54.852Z,10.89
2023-05-10T04:50:21.395Z,10.84
2023-05-10T04:52:47.922Z,10.94
2023-05-10T04:55:14.714Z,11.05
2023-05-10T04:57:41.309Z,11.07
2023-05-10T05:00:08.366Z,11.14
2023-05-10T05:02:34.988Z,11.18
2023-05-10T05:05:01.555Z,11.30
2023-05-10T05:07:28.141Z,11.45
2023-05-10T05:09:54.657Z,11.47
2023-05-10T05:12:21.175Z,11.64
2023-05-10T05:14:47.673Z,11.67
2023-05-10T05:17:14.237Z,11.67
2023-05-10T05:19:41.019Z,11.73
2023-05-10T05:22:09.180Z,11.82
2023-05-10T05:24:37.517Z,11.89
2023-05-10T05:27:04.057Z,11.87
2023-05-10T05:29:30.752Z,12.00
2023-05-10T05:31:57.321Z,12.05
2023-05-10T05:34:24.002Z,12.05
2023-05-10T05:36:50.802Z,12.20
2023-05-10T05:39:17.375Z,12.35
2023-05-10T05:41:44.501Z,12.38
2023-05-10T05:44:11.066Z,12.39
2023-05-10T05:46:37.611Z,12.54
2023-05-10T05:49:04.138Z,12.60
2023-05-10T05:51:30.657Z,12.62
2023-05-10T05:53:57.169Z,12.71
2023-05-10T05:56:26.330Z,12.64
2023-05-10T05:58:52.921Z,12.76
2023-05-10T06:01:19.663Z,12.81
2023-05-10T06:03:46.302Z,12.76
2023-05-10T06:06:13.542Z,12.93
2023-05-10T06:08:40.075Z,13.12
2023-05-10T06:11:08.098Z,13.16
2023-05-10T06:13:36.263Z,13.23
2023-05-10T06:16:03.892Z,13.26
2023-05-10T06:18:30.484Z,13.22
2023-05-10T06:20:57.123Z,13.34
2023-05-10T06:23:23.700Z,13.41
2023-05-10T06:25:50.237Z,13.43
2023-05-10T06:28:16.826Z,13.56
2023-05-10T06:30:43.646Z,13.62
2023-05-10T06:33:10.274Z,13.72
2023-05-10T06:35:37.800Z,13.76
2023-05-10T06:38:04.426Z,13.73
2023-05-10T06:40:31.007Z,13.83
2023-05-10T06:42:57.566Z,13.91
2023-05-10T06:45:24.075Z,13.98
2023-05-10T06:47:50.675Z,14.13
2023-05-10T06:50:17.279Z,14.14
2023-05-10T06:52:44.136Z,14.15
2023-05-10T06:55:11.110Z,14.18
2023-05-10T06:57:37.724Z,14.32
2023-05-10T07:00:07.890Z,14.40
2023-05-10T07:02:34.567Z,14.39
2023-05-10T07:05:15.404Z,14.50
2023-05-10T07:07:42.125Z,14.60
2023-05-10T07:10:09.008Z,14.62
2023-05-10T07:12:35.618Z,14.65
2023-05-10T07:15:02.368Z,14.79
2023-05-10T07:17:28.986Z,14.88
2023-05-10T07:19:55.615Z,14.90
2023-05-10T07:22:22.140Z,14.93
2023-05-10T07:24:48.709Z,15.02
2023-05-10T07:27:15.367Z,15.02
2023-05-10T07:29:41.974Z,15.06
2023-05-10T07:32:08.609Z,15.07
2023-05-10T07:34:35.274Z,15.06
2023-05-10T07:37:02.089Z,15.09
2023-05-10T07:39:28.923Z,15.13
2023-05-10T07:41:56.455Z,15.26
2023-05-10T07:44:23.379Z,15.31
2023-05-10T07:46:50.080Z,15.34
2023-05-10T07:49:17.556Z,15.40
2023-05-10T07:51:44.330Z,15.50
2023-05-10T07:54:10.923Z,15.63
2023-05-10T07:56:37.447Z,15.50
2023-05-10T07:59:09.300Z,15.62
2023-05-10T08:01:36.887Z,15.72
2023-05-10T08:04:03.558Z,15.80
2023-05-10T08:06:31.192Z,15.97
2023-05-10T08:08:58.120Z,16.03
2023-05-10T08:11:24.666Z,16.10
2023-05-10T08:13:52.116Z,16.04
2023-05-10T08:16:18.974Z,16.18
2023-05-10T08:18:47.744Z,16.14
2023-05-10T08:21:15.381Z,16.20
2023-05-10T08:23:42.018Z,16.24
2023-05-10T08:26:08.577Z,16.31
2023-05-10T08:28:35.111Z,16.38
2023-05-10T08:31:01.634Z,16.51
2023-05-10T08:33:28.172Z,16.48
2023-05-10T08:35:54.751Z,16.58
2023-05-10T08:38:21.299Z,16.69
2023-05-10T08:40:51.785Z,16.79
2023-05-10T08:43:19.207Z,16.81
2023-05-10T08:45:48.014Z,16.83
2023-05-10T08:48:14.985Z,16.95
2023-05-10T08:50:43.045Z,17.00
2023-05-10T08:53:14.431Z,17.03
2023-05-10T08:55:43.791Z,17.13
2023-05-10T08:58:10.582Z,17.19
2023-05-10T09:00:40.737Z,17.29
2023-05-10T09:03:08.108Z,17.38
2023-05-10T09:05:34.870Z,17.45
2023-05-10T09:08:04.225Z,17.47
2023-05-10T09:10:31.918Z,17.49
2023-05-10T09:12:59.614Z,17.52
2023-05-10T09:15:26.931Z,17.50
2023-05-10T09:17:53.881Z,17.67
2023-05-10T09:20:21.427Z,17.76
2023-05-10T09:22:48.371Z,17.84
2023-05-10T09:25:16.729Z,17.88
2023-05-10T09:27:48.661Z,18.00
2023-05-10T09:30:33.042Z,18.06
2023-05-10T09:33:00.681Z,18.02
2023-05-10T09:35:31.178Z,17.94
2023-05-10T09:38:01.368Z,18.06
2023-05-10T09:40:29.704Z,18.21
2023-05-10T09:43:00.307Z,18.19
2023-05-10T09:45:29.054Z,18.27
2023-05-10T09:47:56.481Z,18.43
2023-05-10T09:50:24.138Z,18.55
2023-05-10T09:52:59.414Z,18.77
2023-05-10T09:55:40.806Z,18.84
2023-05-10T09:58:11.392Z,18.69
2023-05-10T10:00:41.178Z,18.71
2023-05-10T10:03:14.022Z,18.86
2023-05-10T10:05:42.735Z,19.02
2023-05-10T10:08:09.449Z,19.14
2023-05-10T10:10:36.333Z,19.21
2023-05-10T10:13:03.853Z,19.51
2023-05-10T10:15:30.588Z,19.54
2023-05-10T10:17:57.186Z,19.59
2023-05-10T10:20:24.277Z,19.66
2023-05-10T10:22:51.495Z,19.59
2023-05-10T10:25:20.035Z,19.51
2023-05-10T10:27:52.649Z,19.65
2023-05-10T10:30:43.542Z,19.75
2023-05-10T10:33:20.175Z,19.75
2023-05-10T10:35:55.361Z,19.81
2023-05-10T10:38:21.975Z,19.88
2023-05-10T10:40:48.981Z,19.69
2023-05-10T10:43:22.955Z,19.58
2023-05-10T10:46:18.563Z,20.05
2023-05-10T10:48:50.841Z,20.28
2023-05-10T10:51:17.622Z,19.81
2023-05-10T10:53:44.668Z,20.19
2023-05-10T10:56:14.505Z,20.41
2023-05-10T10:58:41.865Z,20.38
2023-05-10T11:01:16.600Z,20.61
2023-05-10T11:04:16.090Z,20.51
2023-05-10T11:06:43.478Z,20.67
2023-05-10T11:09:12.609Z,20.76
2023-05-10T11:11:59.415Z,20.37
2023-05-10T11:14:26.813Z,20.75
2023-05-10T11:16:53.614Z,20.93
2023-05-10T11:19:20.731Z,20.89
2023-05-10T11:21:47.584Z,21.22
2023-05-10T11:24:16.207Z,21.11
2023-05-10T11:26:43.258Z,20.81
2023-05-10T11:29:10.042Z,20.60
2023-05-10T11:31:44.781Z,20.99
2023-05-10T11:34:12.022Z,21.25
2023-05-10T11:36:38.630Z,20.66
2023-05-10T11:39:06.025Z,20.40
2023-05-10T11:41:32.874Z,20.13
2023-05-10T11:43:59.857Z,20.91
2023-05-10T11:46:28.536Z,20.85
2023-05-10T11:48:58.879Z,21.05
2023-05-10T11:51:26.255Z,21.18
2023-05-10T11:53:57.233Z,21.54
2023-05-10T11:56:24.504Z,21.68
2023-05-10T11:58:58.450Z,21.74
2023-05-10T12:01:27.420Z,21.90
2023-05-10T12:03:54.916Z,21.80
2023-05-10T12:06:22.350Z,21.62
2023-05-10T12:08:53.584Z,21.13
2023-05-10T12:11:21.887Z,21.92
2023-05-10T12:13:48.528Z,21.85
2023-05-10T12:16:20.288Z,22.17
2023-05-10T12:18:50.049Z,21.98
2023-05-10T12:21:16.704Z,22.30
2023-05-10T12:23:45.982Z,22.16
2023-05-10T12:26:12.592Z,22.19
2023-05-10T12:28:40.617Z,22.40
2023-05-10T12:31:07.817Z,22.20
2023-05-10T12:33:43.491Z,22.27
2023-05-10T12:36:24.924Z,22.49
2023-05-10T12:38:53.282Z,22.37
2023-05-10T12:41:19.951Z,22.56
2023-05-10T12:43:47.330Z,22.84
2023-05-10T12:46:15.765Z,22.34
2023-05-10T12:48:43.846Z,22.45
2023-05-10T12:51:12.794Z,22.76
2023-05-10T12:53:42.551Z,23.82
2023-05-10T12:56:11.183Z,24.14
2023-05-10T12:58:37.824Z,23.19
2023-05-10T13:01:05.877Z,22.88
2023-05-10T13:03:32.559Z,22.12
2023-05-10T13:05:59.205Z,22.52
2023-05-10T13:08:25.948Z,23.42
2023-05-10T13:10:52.717Z,23.72
2023-05-10T13:13:19.304Z,22.29
2023-05-10T13:15:45.957Z,22.56
2023-05-10T13:18:12.621Z,22.90
2023-05-10T13:20:39.350Z,22.86
2023-05-10T13:23:06.071Z,22.33
2023-05-10T13:25:32.659Z,21.40
2023-05-10T13:27:59.158Z,21.29
2023-05-10T13:30:26.088Z,21.70
2023-05-10T13:32:52.692Z,22.35
2023-05-10T13:35:19.319Z,22.40
2023-05-10T13:37:45.822Z,22.31
2023-05-10T13:40:12.625Z,21.76
2023-05-10T13:42:39.257Z,21.24
2023-05-10T13:45:06.488Z,22.57
2023-05-10T13:47:33.123Z,21.87
2023-05-10T13:49:59.751Z,21.47
2023-05-10T13:52:27.332Z,21.99
2023-05-10T13:54:55.963Z,22.90
2023-05-10T13:57:23.109Z,22.42
2023-05-10T13:59:49.957Z,22.07
2023-05-10T14:02:16.513Z,23.14
2023-05-10T14:04:43.038Z,22.20
2023-05-10T14:07:09.547Z,22.41
2023-05-10T14:09:36.034Z,23.12
2023-05-10T14:12:03.055Z,22.39
2023-05-10T14:14:30.461Z,22.75
2023-05-10T14:16:57.236Z,22.75
2023-05-10T14:19:23.841Z,22.59
2023-05-10T14:21:50.483Z,22.49
2023-05-10T14:24:17.016Z,21.54
2023-05-10T14:26:43.566Z,21.35
2023-05-10T14:29:12.252Z,21.66
2023-05-10T14:31:39.322Z,22.63
2023-05-10T14:34:06.804Z,23.41
2023-05-10T14:36:33.584Z,22.93
2023-05-10T14:39:00.296Z,22.47
2023-05-10T14:41:27.005Z,23.26
2023-05-10T14:43:54.154Z,23.46
2023-05-10T14:46:20.874Z,22.78
2023-05-10T14:48:47.548Z,22.32
2023-05-10T14:51:14.167Z,22.14
2023-05-10T14:53:40.678Z,21.63
2023-05-10T14:56:08.062Z,21.94
2023-05-10T14:58:34.696Z,22.00
2023-05-10T15:01:01.754Z,21.55
2023-05-10T15:03:29.112Z,21.61
2023-05-10T15:05:58.503Z,21.42
2023-05-10T15:08:28.817Z,20.75
2023-05-10T15:10:56.892Z,21.10
2023-05-10T15:13:23.479Z,21.30
2023-05-10T15:15:50.004Z,21.26
2023-05-10T15:18:16.638Z,21.11
2023-05-10T15:20:43.268Z,20.87
2023-05-10T15:23:09.855Z,20.41
2023-05-10T15:25:38.173Z,20.08
2023-05-10T15:28:07.975Z,19.87
2023-05-10T15:30:34.518Z,20.16
2023-05-10T15:33:01.143Z,19.83
2023-05-10T15:35:27.973Z,20.06
2023-05-10T15:37:54.506Z,20.41
2023-05-10T15:40:21.132Z,20.10
2023-05-10T15:42:47.777Z,19.85
2023-05-10T15:45:14.569Z,19.97
2023-05-10T15:47:41.343Z,19.66
2023-05-10T15:50:08.495Z,19.40
2023-05-10T15:52:36.067Z,19.22
2023-05-10T15:55:03.576Z,18.82
2023-05-10T15:57:30.339Z,18.99
2023-05-10T15:59:56.886Z,18.84
2023-05-10T16:02:23.668Z,18.67
2023-05-10T16:04:50.349Z,18.63
2023-05-10T16:07:16.915Z,18.41
2023-05-10T16:09:43.509Z,18.63
2023-05-10T16:12:10.102Z,18.65
2023-05-10T16:14:36.726Z,18.28
2023-05-10T16:17:04.306Z,18.36
2023-05-10T16:19:31.278Z,18.39
2023-05-10T16:21:57.945Z,18.57
2023-05-10T16:24:25.155Z,18.46
2023-05-10T16:26:52.063Z,18.74
2023-05-10T16:29:18.602Z,18.46
2023-05-10T16:31:45.357Z,18.35
2023-05-10T16:34:12.043Z,18.58
2023-05-10T16:36:38.894Z,18.36
2023-05-10T16:39:05.496Z,18.18
2023-05-10T16:41:35.385Z,18.04
2023-05-10T16:44:03.634Z,18.01
2023-05-10T16:46:30.234Z,17.98
2023-05-10T16:48:56.848Z,17.79
2023-05-10T16:51:23.397Z,17.98
2023-05-10T16:53:49.975Z,17.90
2023-05-10T16:56:18.360Z,17.93
2023-05-10T16:58:44.919Z,17.84
2023-05-10T17:01:11.556Z,17.82
2023-05-10T17:03:38.272Z,17.83
2023-05-10T17:06:06.088Z,17.99
2023-05-10T17:08:33.413Z,17.95
2023-05-10T17:11:03.980Z,17.82
2023-05-10T17:13:30.991Z,17.77
2023-05-10T17:15:57.691Z,17.62
2023-05-10T17:18:24.405Z,17.73
2023-05-10T17:20:55.563Z,17.48
2023-05-10T17:23:22.073Z,17.63
2023-05-10T17:25:48.630Z,17.66
2023-05-10T17:28:15.308Z,17.57
2023-05-10T17:30:41.849Z,17.37
2023-05-10T17:33:08.427Z,17.39
2023-05-10T17:35:35.025Z,17.25
2023-05-10T17:38:01.600Z,17.16
2023-05-10T17:40:28.295Z,17.17
2023-05-10T17:42:54.876Z,17.19
2023-05-10T17:45:21.826Z,17.14
2023-05-10T17:47:48.564Z,16.92
2023-05-10T17:50:15.712Z,16.97
2023-05-10T17:52:42.305Z,16.99
2023-05-10T17:55:09.064Z,16.98
2023-05-10T17:57:38.064Z,16.92
2023-05-10T18:00:06.486Z,16.86
2023-05-10T18:02:33.251Z,16.89
2023-05-10T18:05:01.332Z,16.79
2023-05-10T18:07:29.971Z,16.75
2023-05-10T18:09:59.522Z,16.68
2023-05-10T18:12:26.184Z,16.60
2023-05-10T18:14:52.772Z,16.57
2023-05-10T18:17:19.477Z,16.62
2023-05-10T18:19:46.009Z,16.58
2023-05-10T18:22:12.679Z,16.47
2023-05-10T18:24:41.231Z,16.48
2023-05-10T18:27:11.334Z,16.52
2023-05-10T18:29:38.127Z,16.22
2023-05-10T18:32:05.068Z,16.30
2023-05-10T18:34:31.629Z,16.28
2023-05-10T18:36:58.235Z,16.33
2023-05-10T18:39:25.055Z,16.35
2023-05-10T18:41:51.864Z,16.35
2023-05-10T18:44:19.133Z,16.34
2023-05-10T18:46:46.312Z,16.25
2023-05-10T18:49:13.144Z,16.20
2023-05-10T18:51:39.759Z,16.22
2023-05-10T18:54:06.388Z,16.09
2023-05-10T18:56:35.163Z,16.09
2023-05-10T18:59:01.814Z,16.08
2023-05-10T19:01:28.469Z,15.93
2023-05-10T19:03:55.085Z,15.94
2023-05-10T19:06:24.293Z,15.84
2023-05-10T19:08:50.913Z,15.74
2023-05-10T19:11:22.012Z,15.59
2023-05-10T19:13:48.835Z,15.55
2023-05-10T19:16:16.848Z,15.62
2023-05-10T19:18:44.481Z,15.66
2023-05-10T19:21:11.504Z,15.71
2023-05-10T19:23:42.950Z,15.63
2023-05-10T19:26:10.905Z,15.60
2023-05-10T19:28:37.773Z,15.70
2023-05-10T19:31:04.659Z,15.68
2023-05-10T19:33:31.642Z,15.51
2023-05-10T19:35:58.263Z,15.55
2023-05-10T19:38:25.570Z,15.56
2023-05-10T19:40:59.368Z,15.49
2023-05-10T19:43:27.694Z,15.44
2023-05-10T19:45:55.003Z,15.42
2023-05-10T19:48:21.624Z,15.49
2023-05-10T19:50:48.145Z,15.53
2023-05-10T19:53:14.765Z,15.30
2023-05-10T19:55:41.516Z,15.14
2023-05-10T19:58:08.194Z,15.37
2023-05-10T20:00:34.979Z,15.23
2023-05-10T20:03:02.992Z,15.21
2023-05-10T20:05:29.528Z,15.28
2023-05-10T20:07:56.079Z,15.10
2023-05-10T20:10:24.675Z,15.21
2023-05-10T20:12:52.893Z,15.14
2023-05-10T20:15:22.159Z,15.01
2023-05-10T20:17:51.081Z,14.93
2023-05-10T20:20:18.369Z,14.95
2023-05-10T20:22:45.678Z,14.85
2023-05-10T20:25:13.649Z,14.82
2023-05-10T20:27:40.364Z,14.79
2023-05-10T20:30:09.638Z,14.66
2023-05-10T20:32:37.220Z,14.44
2023-05-10T20:35:04.238Z,14.14
2023-05-10T20:37:31.284Z,14.23
2023-05-10T20:39:57.953Z,14.30
2023-05-10T20:42:24.610Z,14.24
2023-05-10T20:44:51.188Z,14.07
2023-05-10T20:47:18.093Z,13.78
2023-05-10T20:49:44.641Z,13.75
2023-05-10T20:52:11.298Z,13.63
2023-05-10T20:54:37.840Z,13.41
2023-05-10T20:57:04.384Z,13.58
2023-05-10T20:59:30.889Z,13.79
2023-05-10T21:01:57.914Z,13.90
2023-05-10T21:04:25.772Z,13.94
2023-05-10T21:06:53.062Z,13.89
2023-05-10T21:09:19.755Z,13.98
2023-05-10T21:11:46.475Z,13.98
2023-05-10T21:14:13.129Z,13.92
2023-05-10T21:16:39.999Z,13.95
2023-05-10T21:19:07.597Z,13.92
2023-05-10T21:21:34.524Z,13.90
2023-05-10T21:24:01.212Z,13.94
2023-05-10T21:26:27.770Z,13.91
2023-05-10T21:28:54.463Z,13.77
2023-05-10T21:31:21.405Z,13.73
2023-05-10T21:33:47.992Z,13.79
2023-05-10T21:36:14.601Z,13.77
2023-05-10T21:38:44.183Z,13.74
2023-05-10T21:41:11.071Z,13.56
2023-05-10T21:43:37.645Z,13.36
2023-05-10T21:46:04.749Z,13.14
2023-05-10T21:48:31.410Z,13.22
2023-05-10T21:50:58.878Z,13.23
2023-05-10T21:53:25.465Z,13.33
2023-05-10T21:55:52.173Z,13.20
2023-05-10T21:58:18.936Z,13.29
2023-05-10T22:00:46.012Z,13.27
2023-05-10T22:03:12.726Z,13.06
2023-05-10T22:05:39.424Z,13.16
2023-05-10T22:08:07.014Z,12.97
2023-05-10T22:10:33.928Z,12.81
2023-05-10T22:13:00.708Z,13.01
2023-05-10T22:15:27.990Z,13.05
2023-05-10T22:17:54.544Z,13.03
2023-05-10T22:20:21.147Z,13.06
2023-05-10T22:22:47.746Z,12.97
2023-05-10T22:25:14.516Z,12.70
2023-05-10T22:27:41.412Z,12.36
2023-05-10T22:30:08.684Z,12.57
2023-05-10T22:32:35.246Z,12.45
2023-05-10T22:35:02.269Z,12.28
2023-05-10T22:37:28.800Z,12.14
2023-05-10T22:39:55.311Z,12.21
2023-05-10T22:42:21.873Z,12.23
2023-05-10T22:44:48.402Z,12.01
2023-05-10T22:47:14.930Z,11.88
2023-05-10T22:49:41.465Z,11.81
2023-05-10T22:52:08.144Z,11.91
2023-05-10T22:54:36.250Z,12.00
2023-05-10T22:57:03.123Z,11.92
2023-05-10T22:59:29.676Z,11.94
2023-05-10T23:01:56.278Z,11.82
2023-05-10T23:04:22.906Z,11.71
2023-05-10T23:06:49.487Z,11.72
2023-05-10T23:09:16.419Z,11.99
2023-05-10T23:11:42.975Z,12.19
2023-05-10T23:14:09.495Z,12.18
2023-05-10T23:16:36.243Z,11.98
2023-05-10T23:19:02.920Z,12.05
2023-05-10T23:21:31.898Z,11.96
2023-05-10T23:23:59.962Z,11.90
2023-05-10T23:26:27.455Z,11.87
2023-05-10T23:28:54.027Z,11.80
2023-05-10T23:31:21.054Z,11.79
2023-05-10T23:33:47.626Z,11.75
2023-05-10T23:36:14.165Z,11.80
2023-05-10T23:38:40.684Z,11.83
2023-05-10T23:41:07.173Z,11.72
2023-05-10T23:43:33.676Z,11.72
2023-05-10T23:46:01.587Z,11.66
2023-05-10T23:48:28.261Z,11.55
2023-05-10T23:50:54.821Z,11.59
2023-05-10T23:53:21.416Z,11.52
2023-05-10T23:55:47.957Z,11.34
2023-05-10T23:58:14.483Z,11.26
